Time;durP1;ratioP1;P1;durP2;ratioP2;P2;SDS_P1;SDS_P2;PMS_P1;PMS_P2;Temp;Humidity;BMP_temperature;BMP_pressure;BME280_temperature;BME280_humidity;BME280_pressure;Samples;Min_cycle;Max_cycle;Signal;HPM_P1;HPM_P2
2022/04/03 00:00:37;;;;;;;8.10;3.35;;;;;;;;;;5015369;28;20014;-72
2022/04/03 00:03:04;;;;;;;7.70;3.45;;;;;;;;;;5015988;28;20025;-72
2022/04/03 00:05:29;;;;;;;4.72;2.97;;;;;;;;;;5018727;28;20091;-73
2022/04/03 00:07:54;;;;;;;5.20;2.90;;;;;;;;;;5013141;28;20029;-73
2022/04/03 00:10:20;;;;;;;4.72;3.35;;;;;;;;;;5018443;28;20108;-73
2022/04/03 00:12:46;;;;;;;6.57;3.10;;;;;;;;;;5018844;28;20029;-73
2022/04/03 00:15:11;;;;;;;6.40;2.83;;;;;;;;;;5024446;28;20152;-73
2022/04/03 00:17:36;;;;;;;8.23;4.53;;;;;;;;;;5015066;28;20030;-73
2022/04/03 00:20:02;;;;;;;12.77;5.28;;;;;;;;;;5021614;28;20444;-74
2022/04/03 00:22:28;;;;;;;19.23;6.07;;;;;;;;;;5020379;28;20064;-73
2022/04/03 00:24:54;;;;;;;7.88;3.85;;;;;;;;;;5014655;28;20116;-73
2022/04/03 00:27:19;;;;;;;8.73;5.93;;;;;;;;;;5017778;28;20021;-73
2022/04/03 00:29:44;;;;;;;9.50;3.75;;;;;;;;;;5016301;28;20103;-73
2022/04/03 00:32:09;;;;;;;6.60;3.20;;;;;;;;;;5024665;28;20286;-73
2022/04/03 00:34:34;;;;;;;5.03;3.22;;;;;;;;;;5018696;28;20411;-73
2022/04/03 00:36:59;;;;;;;8.65;4.13;;;;;;;;;;5008204;28;20370;-73
2022/04/03 00:39:25;;;;;;;4.88;3.10;;;;;;;;;;5023681;28;20033;-73
2022/04/03 00:41:50;;;;;;;3.72;2.78;;;;;;;;;;5015631;28;20087;-73
2022/04/03 00:44:17;;;;;;;6.15;3.28;;;;;;;;;;5019642;28;20029;-73
2022/04/03 00:46:43;;;;;;;5.72;2.83;;;;;;;;;;5025272;28;20040;-73
2022/04/03 00:49:08;;;;;;;4.20;3.22;;;;;;;;;;5026554;28;20029;-73
2022/04/03 00:51:34;;;;;;;5.05;3.00;;;;;;;;;;5017760;28;20029;-73
2022/04/03 00:54:00;;;;;;;4.68;2.85;;;;;;;;;;5019780;28;20052;-73
2022/04/03 00:56:25;;;;;;;5.22;2.76;;;;;;;;;;5020921;28;20056;-73
2022/04/03 00:58:50;;;;;;;11.43;4.25;;;;;;;;;;5016478;28;20603;-73
2022/04/03 01:01:15;;;;;;;6.00;3.08;;;;;;;;;;5013137;28;20640;-73
2022/04/03 01:03:40;;;;;;;4.03;2.85;;;;;;;;;;5017829;28;20032;-73
2022/04/03 01:06:06;;;;;;;6.22;2.83;;;;;;;;;;5019129;28;20031;-73
2022/04/03 01:08:32;;;;;;;4.75;3.22;;;;;;;;;;5014721;28;20767;-73
2022/04/03 01:10:57;;;;;;;5.30;3.22;;;;;;;;;;5012029;28;20029;-73
2022/04/03 01:13:22;;;;;;;5.55;3.17;;;;;;;;;;5021689;28;20036;-73
2022/04/03 01:15:54;;;;;;;5.38;2.90;;;;;;;;;;5015817;28;20298;-73
2022/04/03 01:18:20;;;;;;;4.20;3.28;;;;;;;;;;5009569;28;20093;-73
2022/04/03 01:20:45;;;;;;;3.72;2.65;;;;;;;;;;5014160;28;20057;-73
2022/04/03 01:23:10;;;;;;;9.13;2.95;;;;;;;;;;5014953;28;20072;-73
2022/04/03 01:25:36;;;;;;;5.82;3.13;;;;;;;;;;5011325;28;20573;-73
2022/04/03 01:28:01;;;;;;;7.25;3.80;;;;;;;;;;5018291;28;20629;-73
2022/04/03 01:30:26;;;;;;;5.47;3.58;;;;;;;;;;5016382;28;20017;-73
2022/04/03 01:32:51;;;;;;;7.32;3.55;;;;;;;;;;5011421;28;20112;-73
2022/04/03 01:35:17;;;;;;;9.35;3.90;;;;;;;;;;5012157;28;20029;-73
2022/04/03 01:37:42;;;;;;;6.20;3.28;;;;;;;;;;5017195;28;20293;-73
2022/04/03 01:40:08;;;;;;;6.88;4.10;;;;;;;;;;5014425;28;20045;-73
2022/04/03 01:42:33;;;;;;;11.48;3.55;;;;;;;;;;5012054;28;20025;-73
2022/04/03 01:44:59;;;;;;;7.28;3.88;;;;;;;;;;5010522;28;20077;-73
2022/04/03 01:47:24;;;;;;;4.13;3.78;;;;;;;;;;5015564;28;20041;-73
2022/04/03 01:49:49;;;;;;;6.13;3.45;;;;;;;;;;5012623;28;20173;-73
2022/04/03 01:52:14;;;;;;;5.72;3.47;;;;;;;;;;5010608;28;20491;-73
2022/04/03 01:54:40;;;;;;;3.70;3.05;;;;;;;;;;5018243;28;20475;-73
2022/04/03 01:57:05;;;;;;;9.23;3.50;;;;;;;;;;5013721;28;20033;-73
2022/04/03 01:59:31;;;;;;;5.35;3.25;;;;;;;;;;5014434;28;20018;-73
2022/04/03 02:01:56;;;;;;;4.60;3.35;;;;;;;;;;5015533;28;20089;-73
2022/04/03 02:04:21;;;;;;;5.38;3.20;;;;;;;;;;5012387;28;20022;-73
2022/04/03 02:06:46;;;;;;;6.53;3.55;;;;;;;;;;5013414;28;20325;-73
2022/04/03 02:09:11;;;;;;;6.68;4.43;;;;;;;;;;5017505;28;20075;-73
2022/04/03 02:11:38;;;;;;;7.96;3.96;;;;;;;;;;5016156;28;20025;-73
2022/04/03 02:14:03;;;;;;;5.82;3.90;;;;;;;;;;5013848;28;20022;-73
2022/04/03 02:16:28;;;;;;;9.57;4.25;;;;;;;;;;5019683;28;20455;-73
2022/04/03 02:18:53;;;;;;;5.15;4.13;;;;;;;;;;5018926;28;20140;-73
2022/04/03 02:21:18;;;;;;;5.47;3.60;;;;;;;;;;5022436;28;20263;-73
2022/04/03 02:23:43;;;;;;;4.28;3.36;;;;;;;;;;5014682;28;20026;-73
2022/04/03 02:26:09;;;;;;;3.90;3.15;;;;;;;;;;5022409;28;20052;-73
2022/04/03 02:28:34;;;;;;;8.98;3.88;;;;;;;;;;5016930;28;20045;-73
2022/04/03 02:30:59;;;;;;;5.38;4.10;;;;;;;;;;5018832;28;20056;-73
2022/04/03 02:33:24;;;;;;;8.88;4.15;;;;;;;;;;5021905;28;20029;-73
2022/04/03 02:35:50;;;;;;;8.45;4.60;;;;;;;;;;5015411;28;20079;-73
2022/04/03 02:38:16;;;;;;;6.90;3.83;;;;;;;;;;5016197;28;20017;-73
2022/04/03 02:40:41;;;;;;;8.73;3.88;;;;;;;;;;5018000;28;20045;-73
2022/04/03 02:43:06;;;;;;;7.45;4.25;;;;;;;;;;5023088;28;20503;-73
2022/04/03 02:45:32;;;;;;;6.20;4.55;;;;;;;;;;5015138;28;20030;-73
2022/04/03 02:47:57;;;;;;;8.23;4.57;;;;;;;;;;5022373;28;20475;-73
2022/04/03 02:50:24;;;;;;;6.55;4.03;;;;;;;;;;5020634;28;20120;-73
2022/04/03 02:52:49;;;;;;;7.35;3.95;;;;;;;;;;5017530;28;20036;-73
2022/04/03 02:55:15;;;;;;;7.10;4.50;;;;;;;;;;5017911;28;20418;-73
2022/04/03 02:57:41;;;;;;;7.38;4.10;;;;;;;;;;5018035;28;20088;-73
2022/04/03 03:00:06;;;;;;;6.63;4.40;;;;;;;;;;5018711;28;20059;-73
2022/04/03 03:02:31;;;;;;;7.30;3.47;;;;;;;;;;5015595;28;20060;-73
2022/04/03 03:04:57;;;;;;;7.50;4.75;;;;;;;;;;5017103;28;20029;-73
2022/04/03 03:07:23;;;;;;;5.47;3.72;;;;;;;;;;5017141;28;20527;-73
2022/04/03 03:09:48;;;;;;;5.45;3.90;;;;;;;;;;5022046;28;20041;-73
2022/04/03 03:12:14;;;;;;;5.95;3.55;;;;;;;;;;5021417;28;20079;-73
2022/04/03 03:14:39;;;;;;;5.93;3.70;;;;;;;;;;5018403;28;20113;-73
2022/04/03 03:17:04;;;;;;;5.57;3.50;;;;;;;;;;5010538;28;20134;-73
2022/04/03 03:19:29;;;;;;;5.07;3.78;;;;;;;;;;5017724;28;20056;-72
2022/04/03 03:21:54;;;;;;;7.72;4.28;;;;;;;;;;5022718;28;20091;-72
2022/04/03 03:24:19;;;;;;;6.16;4.02;;;;;;;;;;5020563;28;20278;-72
2022/04/03 03:26:45;;;;;;;6.13;3.90;;;;;;;;;;5016369;28;20034;-72
2022/04/03 03:29:10;;;;;;;6.53;4.25;;;;;;;;;;5021726;28;20757;-72
2022/04/03 03:31:35;;;;;;;6.97;4.20;;;;;;;;;;5016113;28;20021;-72
2022/04/03 03:34:00;;;;;;;6.88;4.13;;;;;;;;;;5010102;28;20021;-72
2022/04/03 03:36:25;;;;;;;5.28;3.92;;;;;;;;;;5014861;28;20022;-72
2022/04/03 03:38:51;;;;;;;5.13;4.30;;;;;;;;;;5018425;28;20125;-72
2022/04/03 03:41:16;;;;;;;6.68;4.45;;;;;;;;;;5017876;28;20026;-72
2022/04/03 03:43:41;;;;;;;7.42;3.90;;;;;;;;;;5012282;28;20026;-72
2022/04/03 03:46:08;;;;;;;7.63;4.57;;;;;;;;;;5020137;28;20716;-72
2022/04/03 03:48:34;;;;;;;8.20;4.82;;;;;;;;;;5013497;28;20021;-72
2022/04/03 03:50:59;;;;;;;7.30;4.28;;;;;;;;;;5018448;28;20028;-72
2022/04/03 03:53:24;;;;;;;6.98;4.42;;;;;;;;;;5026587;28;20059;-72
2022/04/03 03:55:50;;;;;;;6.63;4.40;;;;;;;;;;5018775;28;20030;-72
2022/04/03 03:58:15;;;;;;;6.03;4.18;;;;;;;;;;5016818;28;20033;-72
2022/04/03 04:00:40;;;;;;;11.23;5.13;;;;;;;;;;5019171;28;20021;-72
2022/04/03 04:03:05;;;;;;;7.58;4.58;;;;;;;;;;5018676;28;20112;-72
2022/04/03 04:05:30;;;;;;;7.13;4.40;;;;;;;;;;5012567;28;20030;-72
2022/04/03 04:07:55;;;;;;;5.57;4.80;;;;;;;;;;5021463;28;20831;-72
2022/04/03 04:10:21;;;;;;;6.64;4.22;;;;;;;;;;5022384;28;20271;-72
2022/04/03 04:12:46;;;;;;;7.82;5.10;;;;;;;;;;5012027;28;20029;-72
2022/04/03 04:15:12;;;;;;;12.00;5.40;;;;;;;;;;5015457;28;20021;-72
2022/04/03 04:17:39;;;;;;;10.13;5.20;;;;;;;;;;5017667;28;20029;-72
2022/04/03 04:20:04;;;;;;;6.88;4.85;;;;;;;;;;5019342;28;20029;-72
2022/04/03 04:22:30;;;;;;;9.20;6.03;;;;;;;;;;5012080;28;20478;-72
2022/04/03 04:24:55;;;;;;;10.55;4.80;;;;;;;;;;5019563;28;20029;-72
2022/04/03 04:27:20;;;;;;;7.50;4.46;;;;;;;;;;5014449;28;20056;-72
2022/04/03 04:29:46;;;;;;;6.40;4.40;;;;;;;;;;5013532;28;20053;-72
2022/04/03 04:32:12;;;;;;;4.38;3.90;;;;;;;;;;5016853;28;20017;-72
2022/04/03 04:34:37;;;;;;;7.32;4.68;;;;;;;;;;5022871;28;20452;-72
2022/04/03 04:37:03;;;;;;;5.30;4.15;;;;;;;;;;5014412;28;20045;-72
2022/04/03 04:39:29;;;;;;;10.68;5.18;;;;;;;;;;5013177;28;20035;-72
2022/04/03 04:41:54;;;;;;;9.27;5.22;;;;;;;;;;5010740;28;20112;-72
2022/04/03 04:44:19;;;;;;;10.20;5.30;;;;;;;;;;5012462;28;20044;-72
2022/04/03 04:46:44;;;;;;;7.72;5.55;;;;;;;;;;5013753;28;20503;-72
2022/04/03 04:49:09;;;;;;;10.50;5.13;;;;;;;;;;5009068;28;20504;-72
2022/04/03 04:51:35;;;;;;;6.60;4.50;;;;;;;;;;5014012;28;20030;-71
2022/04/03 04:54:00;;;;;;;9.48;4.68;;;;;;;;;;5014047;28;20603;-72
2022/04/03 04:56:25;;;;;;;12.08;5.44;;;;;;;;;;5013908;28;20021;-72
2022/04/03 04:58:50;;;;;;;9.72;4.66;;;;;;;;;;5011060;28;20038;-72
2022/04/03 05:01:15;;;;;;;11.90;5.25;;;;;;;;;;5012238;28;20053;-72
2022/04/03 05:03:41;;;;;;;7.55;4.97;;;;;;;;;;5015704;28;20480;-72
2022/04/03 05:06:06;;;;;;;9.90;5.35;;;;;;;;;;5017422;28;20040;-72
2022/04/03 05:08:31;;;;;;;7.57;5.20;;;;;;;;;;5018865;28;20541;-72
2022/04/03 05:10:57;;;;;;;14.75;5.95;;;;;;;;;;5019265;28;20414;-72
2022/04/03 05:13:25;;;;;;;11.00;5.18;;;;;;;;;;5015258;28;20061;-72
2022/04/03 05:15:51;;;;;;;8.27;5.43;;;;;;;;;;5014134;28;20564;-72
2022/04/03 05:18:16;;;;;;;8.80;5.13;;;;;;;;;;5013510;28;20025;-72
2022/04/03 05:20:43;;;;;;;7.10;4.90;;;;;;;;;;5017339;28;20046;-72
2022/04/03 05:23:08;;;;;;;12.30;5.55;;;;;;;;;;5012109;28;20030;-72
2022/04/03 05:25:34;;;;;;;7.65;5.43;;;;;;;;;;5015424;28;20018;-72
2022/04/03 05:27:59;;;;;;;14.65;5.82;;;;;;;;;;5021674;28;20029;-72
2022/04/03 05:30:24;;;;;;;11.73;5.90;;;;;;;;;;5017364;28;20132;-72
2022/04/03 05:32:49;;;;;;;9.60;5.55;;;;;;;;;;5012381;28;20034;-72
2022/04/03 05:35:15;;;;;;;9.02;5.95;;;;;;;;;;5018021;28;20029;-72
2022/04/03 05:37:40;;;;;;;13.15;6.03;;;;;;;;;;5015049;28;20025;-72
2022/04/03 05:40:05;;;;;;;12.13;6.22;;;;;;;;;;5019429;28;20329;-72
2022/04/03 05:42:33;;;;;;;11.18;6.60;;;;;;;;;;5017213;28;20175;-72
2022/04/03 05:44:58;;;;;;;10.52;6.28;;;;;;;;;;5014587;28;20133;-72
2022/04/03 05:47:23;;;;;;;12.45;6.43;;;;;;;;;;5019367;28;20037;-72
2022/04/03 05:49:48;;;;;;;9.13;5.63;;;;;;;;;;5011597;28;20034;-72
2022/04/03 05:52:13;;;;;;;9.65;5.25;;;;;;;;;;5014868;28;20286;-72
2022/04/03 05:54:39;;;;;;;12.50;5.82;;;;;;;;;;5013605;28;20275;-72
2022/04/03 05:57:04;;;;;;;6.85;5.30;;;;;;;;;;5014353;28;20780;-72
2022/04/03 05:59:29;;;;;;;11.07;5.80;;;;;;;;;;5018691;28;20067;-72
2022/04/03 06:01:54;;;;;;;9.35;5.78;;;;;;;;;;5019842;28;20067;-72
2022/04/03 06:04:20;;;;;;;12.27;6.25;;;;;;;;;;5016944;28;20038;-72
2022/04/03 06:06:45;;;;;;;9.98;5.55;;;;;;;;;;5020088;28;20120;-72
2022/04/03 06:09:10;;;;;;;8.90;6.00;;;;;;;;;;5020721;28;20267;-72
2022/04/03 06:11:35;;;;;;;13.07;6.03;;;;;;;;;;5020527;28;20042;-72
2022/04/03 06:14:00;;;;;;;11.05;5.90;;;;;;;;;;5016432;28;20030;-72
2022/04/03 06:16:26;;;;;;;10.88;5.95;;;;;;;;;;5017120;28;20541;-72
2022/04/03 06:18:53;;;;;;;9.23;6.15;;;;;;;;;;5014792;28;20017;-72
2022/04/03 06:21:18;;;;;;;14.40;6.35;;;;;;;;;;5020452;28;20026;-72
2022/04/03 06:23:43;;;;;;;10.43;6.00;;;;;;;;;;5011146;28;20380;-72
2022/04/03 06:26:08;;;;;;;9.43;5.10;;;;;;;;;;5019407;28;20021;-72
2022/04/03 06:28:33;;;;;;;10.98;6.60;;;;;;;;;;5019522;28;20788;-72
2022/04/03 06:30:59;;;;;;;10.20;6.57;;;;;;;;;;5021014;28;20267;-72
2022/04/03 06:33:24;;;;;;;12.38;5.97;;;;;;;;;;5020621;28;20040;-72
2022/04/03 06:35:50;;;;;;;9.40;5.95;;;;;;;;;;5018043;28;20507;-72
2022/04/03 06:38:15;;;;;;;14.32;6.50;;;;;;;;;;5017993;28;20018;-72
2022/04/03 06:40:44;;;;;;;11.38;6.55;;;;;;;;;;5020987;28;20018;-72
2022/04/03 06:43:09;;;;;;;8.48;5.65;;;;;;;;;;5015897;28;20065;-72
2022/04/03 06:45:34;;;;;;;12.23;6.10;;;;;;;;;;5016174;28;20026;-72
2022/04/03 06:48:00;;;;;;;14.20;7.25;;;;;;;;;;5022990;28;20486;-72
2022/04/03 06:50:26;;;;;;;16.33;7.80;;;;;;;;;;5020374;28;20032;-72
2022/04/03 06:52:51;;;;;;;16.05;9.02;;;;;;;;;;5020727;28;20396;-72
2022/04/03 06:55:16;;;;;;;15.07;8.10;;;;;;;;;;5019481;28;20087;-72
2022/04/03 06:57:41;;;;;;;13.15;7.60;;;;;;;;;;5025960;28;20471;-73
2022/04/03 07:00:08;;;;;;;18.52;9.07;;;;;;;;;;5023812;28;20434;-73
2022/04/03 07:02:34;;;;;;;19.65;9.45;;;;;;;;;;5017444;28;20107;-72
2022/04/03 07:04:59;;;;;;;17.42;9.68;;;;;;;;;;5016842;28;20029;-72
2022/04/03 07:07:24;;;;;;;31.73;8.85;;;;;;;;;;5019802;28;20029;-72
2022/04/03 07:09:50;;;;;;;16.17;8.73;;;;;;;;;;5024236;28;20518;-72
2022/04/03 07:12:16;;;;;;;20.42;9.75;;;;;;;;;;5019878;28;20150;-72
2022/04/03 07:14:41;;;;;;;17.38;9.82;;;;;;;;;;5020720;28;20403;-72
2022/04/03 07:17:06;;;;;;;18.47;10.40;;;;;;;;;;5017625;28;20349;-72
2022/04/03 07:19:32;;;;;;;19.90;10.20;;;;;;;;;;5021790;28;20309;-72
2022/04/03 07:21:58;;;;;;;17.20;8.75;;;;;;;;;;5018603;28;20495;-72
2022/04/03 07:24:23;;;;;;;15.30;8.75;;;;;;;;;;5015234;28;20030;-72
2022/04/03 07:26:49;;;;;;;17.30;8.98;;;;;;;;;;5012445;28;20373;-72
2022/04/03 07:29:14;;;;;;;19.80;11.13;;;;;;;;;;5017351;28;20516;-72
2022/04/03 07:31:39;;;;;;;18.88;9.45;;;;;;;;;;5017992;28;20263;-72
2022/04/03 07:34:04;;;;;;;22.17;9.73;;;;;;;;;;5017213;28;20092;-72
2022/04/03 07:36:30;;;;;;;16.20;9.60;;;;;;;;;;5012825;28;20298;-72
2022/04/03 07:38:56;;;;;;;16.60;8.18;;;;;;;;;;5018778;28;20262;-72
2022/04/03 07:41:21;;;;;;;17.13;8.85;;;;;;;;;;5014722;28;20017;-72
2022/04/03 07:43:47;;;;;;;12.40;7.90;;;;;;;;;;5018998;28;20453;-72
2022/04/03 07:46:16;;;;;;;14.68;8.23;;;;;;;;;;5014446;28;20362;-72
2022/04/03 07:48:41;;;;;;;10.65;7.47;;;;;;;;;;5014091;28;20022;-72
2022/04/03 07:51:06;;;;;;;12.27;7.50;;;;;;;;;;5014398;28;20405;-72
2022/04/03 07:53:31;;;;;;;14.38;6.03;;;;;;;;;;5011576;28;20711;-72
2022/04/03 07:55:57;;;;;;;10.07;7.17;;;;;;;;;;5013410;28;20483;-72
2022/04/03 07:58:22;;;;;;;16.63;6.05;;;;;;;;;;5018951;28;20258;-72
2022/04/03 08:00:47;;;;;;;13.77;6.43;;;;;;;;;;5014001;28;20025;-72
2022/04/03 08:03:13;;;;;;;16.42;6.57;;;;;;;;;;5014143;28;20026;-72
2022/04/03 08:05:38;;;;;;;12.13;6.07;;;;;;;;;;5019235;28;20028;-72
2022/04/03 08:08:03;;;;;;;12.00;7.20;;;;;;;;;;5017473;28;20044;-73
2022/04/03 08:10:29;;;;;;;7.85;5.47;;;;;;;;;;5019064;28;20041;-73
2022/04/03 08:12:54;;;;;;;9.85;5.28;;;;;;;;;;5008095;28;20025;-75
2022/04/03 08:15:20;;;;;;;10.83;5.87;;;;;;;;;;5014152;28;20531;-72
2022/04/03 08:17:45;;;;;;;7.32;4.75;;;;;;;;;;5015843;28;20266;-73
2022/04/03 08:20:12;;;;;;;8.82;4.40;;;;;;;;;;5017428;28;20026;-72
2022/04/03 08:22:39;;;;;;;6.57;3.38;;;;;;;;;;5013284;28;20053;-73
2022/04/03 08:25:07;;;;;;;10.80;4.75;;;;;;;;;;5010958;28;20476;-72
2022/04/03 08:27:44;;;;;;;8.48;3.50;;;;;;;;;;5012739;28;20338;-72
2022/04/03 08:30:10;;;;;;;7.88;3.85;;;;;;;;;;5013980;28;20100;-71
2022/04/03 08:32:36;;;;;;;5.93;3.42;;;;;;;;;;5017478;28;20030;-71
2022/04/03 08:35:01;;;;;;;4.85;3.97;;;;;;;;;;5018435;28;20032;-71
2022/04/03 08:37:27;;;;;;;11.20;5.03;;;;;;;;;;5017576;28;20030;-71
2022/04/03 08:39:52;;;;;;;7.20;3.88;;;;;;;;;;5013573;28;20029;-72
2022/04/03 08:42:18;;;;;;;9.80;3.40;;;;;;;;;;5015840;28;20025;-72
2022/04/03 08:44:43;;;;;;;8.55;3.65;;;;;;;;;;5014118;28;20041;-71
2022/04/03 08:47:09;;;;;;;9.23;4.73;;;;;;;;;;5016808;28;20752;-71
2022/04/03 08:49:36;;;;;;;5.65;3.78;;;;;;;;;;5009208;28;20274;-71
2022/04/03 08:52:02;;;;;;;9.45;4.72;;;;;;;;;;5011317;28;20606;-72
2022/04/03 08:54:28;;;;;;;4.97;3.25;;;;;;;;;;5009305;28;20029;-71
2022/04/03 08:56:54;;;;;;;15.18;6.13;;;;;;;;;;5005905;28;20029;-71
2022/04/03 08:59:19;;;;;;;5.15;3.30;;;;;;;;;;5008325;28;20022;-72
2022/04/03 09:01:44;;;;;;;16.80;8.57;;;;;;;;;;5007625;28;20026;-72
2022/04/03 09:04:09;;;;;;;5.93;3.50;;;;;;;;;;5009148;28;20036;-72
2022/04/03 09:06:34;;;;;;;10.43;3.43;;;;;;;;;;5009092;28;20328;-72
2022/04/03 09:09:01;;;;;;;8.13;4.60;;;;;;;;;;5007974;28;20741;-71
2022/04/03 09:11:29;;;;;;;11.25;4.78;;;;;;;;;;5016493;28;21024;-72
2022/04/03 09:13:55;;;;;;;8.57;3.58;;;;;;;;;;5013684;28;20033;-72
2022/04/03 09:16:36;;;;;;;12.57;6.55;;;;;;;;;;5017044;28;20025;-72
2022/04/03 09:19:01;;;;;;;6.13;3.85;;;;;;;;;;5010287;28;20037;-71
2022/04/03 09:21:27;;;;;;;5.37;3.10;;;;;;;;;;5016349;28;20530;-72
2022/04/03 09:24:02;;;;;;;6.50;4.00;;;;;;;;;;5013569;28;20274;-71
2022/04/03 09:26:28;;;;;;;6.63;3.50;;;;;;;;;;5017875;28;20475;-72
2022/04/03 09:29:09;;;;;;;7.97;5.53;;;;;;;;;;5016855;28;20033;-69
2022/04/03 09:31:34;;;;;;;6.97;3.25;;;;;;;;;;5014471;28;20054;-71
2022/04/03 09:34:00;;;;;;;12.55;4.93;;;;;;;;;;5013741;28;20111;-72
2022/04/03 09:36:29;;;;;;;6.47;2.58;;;;;;;;;;5013223;28;20519;-71
2022/04/03 09:39:03;;;;;;;3.63;2.75;;;;;;;;;;5014329;28;20036;-71
2022/04/03 09:41:28;;;;;;;20.02;4.82;;;;;;;;;;5009357;28;20034;-71
2022/04/03 09:43:53;;;;;;;6.00;2.50;;;;;;;;;;5013381;28;20053;-71
2022/04/03 09:46:19;;;;;;;7.40;2.88;;;;;;;;;;5015474;28;20041;-71
2022/04/03 09:48:44;;;;;;;5.53;2.60;;;;;;;;;;5013876;28;20113;-72
2022/04/03 09:51:11;;;;;;;7.03;3.10;;;;;;;;;;5014575;28;20058;-69
2022/04/03 09:53:58;;;;;;;7.22;2.47;;;;;;;;;;5016755;28;20120;-71
2022/04/03 09:56:23;;;;;;;4.60;2.58;;;;;;;;;;5020176;28;20417;-71
2022/04/03 09:58:51;;;;;;;4.53;2.65;;;;;;;;;;5011823;28;20036;-70
2022/04/03 10:01:21;;;;;;;6.40;2.42;;;;;;;;;;5015233;28;20527;-73
2022/04/03 10:03:47;;;;;;;8.68;3.50;;;;;;;;;;5015253;28;20444;-71
2022/04/03 10:06:12;;;;;;;5.75;2.53;;;;;;;;;;5020018;28;20062;-71
2022/04/03 10:08:37;;;;;;;4.63;2.22;;;;;;;;;;5016535;28;20029;-71
2022/04/03 10:11:03;;;;;;;6.43;4.13;;;;;;;;;;5021234;28;20403;-71
2022/04/03 10:13:28;;;;;;;8.75;2.65;;;;;;;;;;5015795;28;20942;-71
2022/04/03 10:15:54;;;;;;;7.03;3.05;;;;;;;;;;5014592;28;20061;-71
2022/04/03 10:18:19;;;;;;;6.60;4.00;;;;;;;;;;5014338;28;20164;-74
2022/04/03 10:20:45;;;;;;;4.78;2.55;;;;;;;;;;5019005;28;20103;-71
2022/04/03 10:23:12;;;;;;;6.38;2.50;;;;;;;;;;5014377;28;20021;-71
2022/04/03 10:25:44;;;;;;;3.35;2.25;;;;;;;;;;5014839;28;20134;-71
2022/04/03 10:28:09;;;;;;;16.40;9.55;;;;;;;;;;5012192;28;20022;-70
2022/04/03 10:30:38;;;;;;;9.35;3.00;;;;;;;;;;5021125;28;20028;-71
2022/04/03 10:33:04;;;;;;;6.30;3.25;;;;;;;;;;5017958;28;20039;-71
2022/04/03 10:35:29;;;;;;;11.48;6.63;;;;;;;;;;5018049;28;20017;-71
2022/04/03 10:38:02;;;;;;;4.90;2.25;;;;;;;;;;5026220;28;20560;-71
2022/04/03 10:40:29;;;;;;;5.13;2.90;;;;;;;;;;5024524;28;20022;-71
2022/04/03 10:42:58;;;;;;;7.78;3.13;;;;;;;;;;5017297;28;20033;-71
2022/04/03 10:45:36;;;;;;;11.57;5.90;;;;;;;;;;5025735;28;20026;-71
2022/04/03 10:48:23;;;;;;;33.25;17.23;;;;;;;;;;5013215;28;20025;-71
2022/04/03 10:51:06;;;;;;;3.70;2.00;;;;;;;;;;5015084;28;20021;-71
2022/04/03 10:53:33;;;;;;;4.82;2.58;;;;;;;;;;5013715;28;20169;-71
2022/04/03 10:56:00;;;;;;;6.78;2.67;;;;;;;;;;5018970;28;20025;-71
2022/04/03 10:58:37;;;;;;;11.23;5.32;;;;;;;;;;5021289;28;20799;-71
2022/04/03 11:01:03;;;;;;;14.02;7.95;;;;;;;;;;5021729;28;20025;-71
2022/04/03 11:03:28;;;;;;;21.42;13.80;;;;;;;;;;5024379;28;20017;-72
2022/04/03 11:05:54;;;;;;;5.30;4.28;;;;;;;;;;5027085;28;20464;-72
2022/04/03 11:08:39;;;;;;;4.90;2.53;;;;;;;;;;5021834;28;20109;-72
2022/04/03 11:11:08;;;;;;;17.48;7.63;;;;;;;;;;5017377;28;20061;-72
2022/04/03 11:13:33;;;;;;;8.30;4.18;;;;;;;;;;5019792;28;20493;-71
2022/04/03 11:16:06;;;;;;;9.90;8.00;;;;;;;;;;5017533;28;20750;-71
2022/04/03 11:18:39;;;;;;;5.35;4.53;;;;;;;;;;5018557;28;20461;-71
2022/04/03 11:21:10;;;;;;;6.57;3.85;;;;;;;;;;5019630;28;20586;-70
2022/04/03 11:23:35;;;;;;;12.82;3.72;;;;;;;;;;5015987;28;20392;-71
2022/04/03 11:26:01;;;;;;;8.60;4.10;;;;;;;;;;5020459;28;20030;-71
2022/04/03 11:28:27;;;;;;;15.57;7.68;;;;;;;;;;5022342;28;20083;-73
2022/04/03 11:30:53;;;;;;;9.35;4.72;;;;;;;;;;5015677;28;20097;-71
2022/04/03 11:33:18;;;;;;;5.53;4.25;;;;;;;;;;5014264;28;20038;-71
2022/04/03 11:35:44;;;;;;;5.15;4.05;;;;;;;;;;5020461;28;20022;-69
2022/04/03 11:38:10;;;;;;;8.23;7.43;;;;;;;;;;5025301;28;20017;-71
2022/04/03 11:40:36;;;;;;;6.93;4.97;;;;;;;;;;5022438;28;20013;-70
2022/04/03 11:43:14;;;;;;;3.85;3.05;;;;;;;;;;5022961;28;20033;-71
2022/04/03 11:45:40;;;;;;;6.32;3.47;;;;;;;;;;5020434;28;20025;-71
2022/04/03 11:48:18;;;;;;;5.17;3.53;;;;;;;;;;5020804;28;20135;-70
2022/04/03 11:50:43;;;;;;;3.97;2.40;;;;;;;;;;5023893;28;20688;-69
2022/04/03 11:53:09;;;;;;;4.55;2.70;;;;;;;;;;5019756;28;20026;-70
2022/04/03 11:55:38;;;;;;;5.50;2.30;;;;;;;;;;5026795;28;20053;-71
2022/04/03 11:58:04;;;;;;;6.68;3.55;;;;;;;;;;5022258;28;20021;-70
2022/04/03 12:00:33;;;;;;;5.30;3.15;;;;;;;;;;5019954;28;20076;-70
2022/04/03 12:02:58;;;;;;;7.22;2.67;;;;;;;;;;5019591;28;20076;-71
2022/04/03 12:05:23;;;;;;;9.93;5.40;;;;;;;;;;5026088;28;20096;-71
2022/04/03 12:07:49;;;;;;;4.97;4.43;;;;;;;;;;5026523;28;20446;-71
2022/04/03 12:10:24;;;;;;;7.45;3.38;;;;;;;;;;5023463;28;20029;-70
2022/04/03 12:12:49;;;;;;;2.55;2.38;;;;;;;;;;5021555;28;20029;-69
2022/04/03 12:15:14;;;;;;;4.97;3.43;;;;;;;;;;5027524;28;20016;-70
2022/04/03 12:17:41;;;;;;;3.72;3.42;;;;;;;;;;5022018;28;20670;-70
2022/04/03 12:20:09;;;;;;;3.50;2.20;;;;;;;;;;5018456;28;20361;-71
2022/04/03 12:22:34;;;;;;;5.63;2.00;;;;;;;;;;5016329;28;20032;-71
2022/04/03 12:24:59;;;;;;;8.13;2.83;;;;;;;;;;5022708;28;20029;-70
2022/04/03 12:27:30;;;;;;;5.47;2.70;;;;;;;;;;5024201;28;20267;-71
2022/04/03 12:29:55;;;;;;;9.52;2.75;;;;;;;;;;5020050;28;20305;-71
2022/04/03 12:32:27;;;;;;;4.05;2.90;;;;;;;;;;5023285;28;20021;-71
2022/04/03 12:34:53;;;;;;;3.67;2.60;;;;;;;;;;5022940;28;20365;-71
2022/04/03 12:37:18;;;;;;;2.90;2.60;;;;;;;;;;5026099;28;20051;-71
2022/04/03 12:39:44;;;;;;;4.03;2.03;;;;;;;;;;5025136;28;20037;-72
2022/04/03 12:42:26;;;;;;;10.70;3.10;;;;;;;;;;5019535;28;21061;-71
2022/04/03 12:44:59;;;;;;;2.90;2.70;;;;;;;;;;5019097;28;20668;-73
2022/04/03 12:47:28;;;;;;;2.35;2.15;;;;;;;;;;5019331;28;20091;-72
2022/04/03 12:50:05;;;;;;;8.88;2.70;;;;;;;;;;5016860;28;20041;-72
2022/04/03 12:52:48;;;;;;;5.40;4.53;;;;;;;;;;5018564;28;20478;-71
2022/04/03 12:55:23;;;;;;;5.95;3.85;;;;;;;;;;5016605;28;20033;-72
2022/04/03 13:00:41;;;;;;;3.22;2.70;;;;;;;;;;5016233;28;20032;-71
2022/04/03 13:03:07;;;;;;;2.83;2.35;;;;;;;;;;5015089;28;20030;-72
2022/04/03 13:05:32;;;;;;;11.82;5.45;;;;;;;;;;5016036;28;20036;-72
2022/04/03 13:08:07;;;;;;;4.93;2.83;;;;;;;;;;5013979;28;20033;-71
2022/04/03 13:10:33;;;;;;;3.47;2.17;;;;;;;;;;5024336;28;20034;-72
2022/04/03 13:12:58;;;;;;;3.92;3.15;;;;;;;;;;5014967;28;20056;-72
2022/04/03 13:15:23;;;;;;;2.53;2.33;;;;;;;;;;5017671;28;20030;-71
2022/04/03 13:17:49;;;;;;;6.05;2.47;;;;;;;;;;5021188;28;20025;-72
2022/04/03 13:20:14;;;;;;;5.97;2.15;;;;;;;;;;5018590;28;20032;-72
2022/04/03 13:22:39;;;;;;;2.58;1.95;;;;;;;;;;5020912;28;20053;-72
2022/04/03 13:25:05;;;;;;;4.78;1.83;;;;;;;;;;5017320;28;20116;-73
2022/04/03 13:27:30;;;;;;;3.55;2.60;;;;;;;;;;5027867;28;20693;-74
2022/04/03 13:29:55;;;;;;;2.35;2.00;;;;;;;;;;5021628;28;20025;-71
2022/04/03 13:32:21;;;;;;;2.58;2.38;;;;;;;;;;5019054;28;20152;-71
2022/04/03 13:34:46;;;;;;;5.97;3.80;;;;;;;;;;5013496;28;20029;-72
2022/04/03 13:37:11;;;;;;;2.72;1.55;;;;;;;;;;5014813;28;20065;-69
2022/04/03 13:39:36;;;;;;;6.22;1.80;;;;;;;;;;5017348;28;20431;-71
2022/04/03 13:42:07;;;;;;;4.20;2.03;;;;;;;;;;5013343;28;20037;-71
2022/04/03 13:44:32;;;;;;;3.58;1.85;;;;;;;;;;5012013;28;20461;-71
2022/04/03 13:46:57;;;;;;;3.90;2.40;;;;;;;;;;5016507;28;20067;-71
2022/04/03 13:49:24;;;;;;;3.42;2.72;;;;;;;;;;5019987;28;20274;-69
2022/04/03 13:51:50;;;;;;;3.40;2.40;;;;;;;;;;5011492;28;20029;-70
2022/04/03 13:54:15;;;;;;;7.78;2.42;;;;;;;;;;5007319;28;20014;-69
2022/04/03 13:56:40;;;;;;;5.22;2.85;;;;;;;;;;5018990;28;20479;-70
2022/04/03 13:59:05;;;;;;;4.05;3.38;;;;;;;;;;5020296;28;20492;-69
2022/04/03 14:01:31;;;;;;;4.47;2.72;;;;;;;;;;5014461;28;20458;-69
2022/04/03 14:03:56;;;;;;;5.72;2.65;;;;;;;;;;5011968;28;20379;-70
2022/04/03 14:06:21;;;;;;;4.38;2.53;;;;;;;;;;5016298;28;20083;-76
2022/04/03 14:08:47;;;;;;;2.95;2.40;;;;;;;;;;5011687;28;20273;-73
2022/04/03 14:11:13;;;;;;;3.08;2.78;;;;;;;;;;5020499;28;20029;-75
2022/04/03 14:13:38;;;;;;;6.57;3.50;;;;;;;;;;5016152;28;20121;-74
2022/04/03 14:16:04;;;;;;;7.20;6.30;;;;;;;;;;5020004;28;20071;-71
2022/04/03 14:18:30;;;;;;;3.90;2.67;;;;;;;;;;5020619;28;20018;-74
2022/04/03 14:20:56;;;;;;;4.53;4.13;;;;;;;;;;5021256;28;20021;-74
2022/04/03 14:23:22;;;;;;;4.78;3.03;;;;;;;;;;5019187;28;20112;-74
2022/04/03 14:25:48;;;;;;;6.05;2.85;;;;;;;;;;5019422;28;20041;-75
2022/04/03 14:28:13;;;;;;;3.42;2.22;;;;;;;;;;5020251;28;20026;-74
2022/04/03 14:30:38;;;;;;;10.60;6.28;;;;;;;;;;5033013;28;20098;-76
2022/04/03 14:33:04;;;;;;;13.45;7.32;;;;;;;;;;5015712;28;20029;-76
2022/04/03 14:35:29;;;;;;;5.38;4.22;;;;;;;;;;5021084;28;20064;-75